sensor_id;sensor_type;location;lat;lon;timestamp;P1;durP1;ratioP1;P2;durP2;ratioP2
1410;SDS011;700;51.906;8.404;2024-03-08T00:03:05;26.40;;;17.00;;
1410;SDS011;700;51.906;8.404;2024-03-08T00:08:06;26.33;;;17.73;;
1410;SDS011;700;51.906;8.404;2024-03-08T00:13:09;24.30;;;18.30;;
1410;SDS011;700;51.906;8.404;2024-03-08T00:18:13;25.47;;;17.90;;
1410;SDS011;700;51.906;8.404;2024-03-08T00:23:13;24.67;;;17.47;;
1410;SDS011;700;51.906;8.404;2024-03-08T00:28:15;24.83;;;16.90;;
1410;SDS011;700;51.906;8.404;2024-03-08T00:33:17;27.33;;;18.73;;
1410;SDS011;700;51.906;8.404;2024-03-08T00:38:17;23.27;;;17.30;;
1410;SDS011;700;51.906;8.404;2024-03-08T00:43:18;26.13;;;17.00;;
1410;SDS011;700;51.906;8.404;2024-03-08T00:48:22;24.60;;;17.43;;
1410;SDS011;700;51.906;8.404;2024-03-08T00:53:23;24.20;;;17.77;;
1410;SDS011;700;51.906;8.404;2024-03-08T00:58:23;24.50;;;18.00;;
1410;SDS011;700;51.906;8.404;2024-03-08T01:03:26;28.40;;;17.97;;
1410;SDS011;700;51.906;8.404;2024-03-08T01:08:27;27.97;;;18.57;;
1410;SDS011;700;51.906;8.404;2024-03-08T01:13:28;26.63;;;18.60;;
1410;SDS011;700;51.906;8.404;2024-03-08T01:18:29;29.97;;;20.83;;
1410;SDS011;700;51.906;8.404;2024-03-08T01:23:29;26.17;;;18.70;;
1410;SDS011;700;51.906;8.404;2024-03-08T01:28:30;26.30;;;18.80;;
1410;SDS011;700;51.906;8.404;2024-03-08T01:33:31;26.60;;;18.10;;
1410;SDS011;700;51.906;8.404;2024-03-08T01:38:32;27.50;;;18.87;;
1410;SDS011;700;51.906;8.404;2024-03-08T01:43:33;24.87;;;18.30;;
1410;SDS011;700;51.906;8.404;2024-03-08T01:48:34;26.53;;;18.23;;
1410;SDS011;700;51.906;8.404;2024-03-08T01:53:37;28.70;;;21.10;;
1410;SDS011;700;51.906;8.404;2024-03-08T01:58:41;27.30;;;19.47;;
1410;SDS011;700;51.906;8.404;2024-03-08T02:03:47;27.20;;;19.17;;
1410;SDS011;700;51.906;8.404;2024-03-08T02:08:47;28.07;;;19.50;;
1410;SDS011;700;51.906;8.404;2024-03-08T02:13:48;28.50;;;19.43;;
1410;SDS011;700;51.906;8.404;2024-03-08T02:18:49;29.00;;;19.20;;
1410;SDS011;700;51.906;8.404;2024-03-08T02:23:49;25.30;;;18.23;;
1410;SDS011;700;51.906;8.404;2024-03-08T02:28:55;32.10;;;21.33;;
1410;SDS011;700;51.906;8.404;2024-03-08T02:33:55;30.20;;;20.40;;
1410;SDS011;700;51.906;8.404;2024-03-08T02:38:57;30.17;;;19.73;;
1410;SDS011;700;51.906;8.404;2024-03-08T02:44:01;27.67;;;19.40;;
1410;SDS011;700;51.906;8.404;2024-03-08T02:49:01;29.03;;;20.00;;
1410;SDS011;700;51.906;8.404;2024-03-08T02:54:04;26.23;;;19.70;;
1410;SDS011;700;51.906;8.404;2024-03-08T02:59:05;30.70;;;20.87;;
1410;SDS011;700;51.906;8.404;2024-03-08T03:04:05;28.67;;;19.37;;
1410;SDS011;700;51.906;8.404;2024-03-08T03:09:08;27.43;;;20.07;;
1410;SDS011;700;51.906;8.404;2024-03-08T03:14:10;33.33;;;20.80;;
1410;SDS011;700;51.906;8.404;2024-03-08T03:19:15;29.67;;;20.83;;
1410;SDS011;700;51.906;8.404;2024-03-08T03:24:16;34.10;;;22.47;;
1410;SDS011;700;51.906;8.404;2024-03-08T03:29:20;32.20;;;21.23;;
1410;SDS011;700;51.906;8.404;2024-03-08T03:34:21;36.17;;;22.27;;
1410;SDS011;700;51.906;8.404;2024-03-08T03:39:22;30.30;;;20.63;;
1410;SDS011;700;51.906;8.404;2024-03-08T03:44:24;30.77;;;21.70;;
1410;SDS011;700;51.906;8.404;2024-03-08T03:49:24;29.60;;;20.80;;
1410;SDS011;700;51.906;8.404;2024-03-08T03:54:25;30.27;;;21.30;;
1410;SDS011;700;51.906;8.404;2024-03-08T03:59:26;35.40;;;23.67;;
1410;SDS011;700;51.906;8.404;2024-03-08T04:04:27;34.53;;;22.73;;
1410;SDS011;700;51.906;8.404;2024-03-08T04:09:27;32.40;;;21.40;;
1410;SDS011;700;51.906;8.404;2024-03-08T04:14:28;30.10;;;21.17;;
1410;SDS011;700;51.906;8.404;2024-03-08T04:19:29;33.30;;;21.47;;
1410;SDS011;700;51.906;8.404;2024-03-08T04:24:29;34.27;;;21.37;;
1410;SDS011;700;51.906;8.404;2024-03-08T04:29:32;33.43;;;20.93;;
1410;SDS011;700;51.906;8.404;2024-03-08T04:34:34;34.30;;;21.47;;
1410;SDS011;700;51.906;8.404;2024-03-08T04:39:37;27.00;;;19.33;;
1410;SDS011;700;51.906;8.404;2024-03-08T04:44:40;31.63;;;21.80;;
1410;SDS011;700;51.906;8.404;2024-03-08T04:49:41;32.07;;;20.90;;
1410;SDS011;700;51.906;8.404;2024-03-08T04:54:49;29.40;;;19.73;;
1410;SDS011;700;51.906;8.404;2024-03-08T04:59:52;34.97;;;20.37;;
1410;SDS011;700;51.906;8.404;2024-03-08T05:04:54;36.60;;;22.10;;
1410;SDS011;700;51.906;8.404;2024-03-08T05:09:57;33.77;;;20.93;;
1410;SDS011;700;51.906;8.404;2024-03-08T05:14:58;33.20;;;21.90;;
1410;SDS011;700;51.906;8.404;2024-03-08T05:19:58;35.17;;;22.00;;
1410;SDS011;700;51.906;8.404;2024-03-08T05:25:03;32.40;;;20.77;;
1410;SDS011;700;51.906;8.404;2024-03-08T05:30:05;33.10;;;22.00;;
1410;SDS011;700;51.906;8.404;2024-03-08T05:35:14;37.77;;;22.17;;
1410;SDS011;700;51.906;8.404;2024-03-08T05:40:16;36.70;;;22.53;;
1410;SDS011;700;51.906;8.404;2024-03-08T05:45:16;35.33;;;22.40;;
1410;SDS011;700;51.906;8.404;2024-03-08T05:50:21;35.53;;;23.00;;
1410;SDS011;700;51.906;8.404;2024-03-08T05:55:24;34.23;;;21.30;;
1410;SDS011;700;51.906;8.404;2024-03-08T06:00:27;33.80;;;22.43;;
1410;SDS011;700;51.906;8.404;2024-03-08T06:05:28;32.77;;;23.43;;
1410;SDS011;700;51.906;8.404;2024-03-08T06:10:28;36.37;;;22.60;;
1410;SDS011;700;51.906;8.404;2024-03-08T06:15:29;37.60;;;22.03;;
1410;SDS011;700;51.906;8.404;2024-03-08T06:20:30;38.47;;;22.50;;
1410;SDS011;700;51.906;8.404;2024-03-08T06:25:33;35.80;;;22.10;;
1410;SDS011;700;51.906;8.404;2024-03-08T06:30:35;32.57;;;21.27;;
1410;SDS011;700;51.906;8.404;2024-03-08T06:35:36;36.83;;;22.43;;
1410;SDS011;700;51.906;8.404;2024-03-08T06:40:39;33.30;;;21.90;;
1410;SDS011;700;51.906;8.404;2024-03-08T06:45:40;31.90;;;22.30;;
1410;SDS011;700;51.906;8.404;2024-03-08T06:50:41;31.07;;;23.00;;
1410;SDS011;700;51.906;8.404;2024-03-08T06:55:41;30.33;;;21.50;;
1410;SDS011;700;51.906;8.404;2024-03-08T07:00:44;31.03;;;19.73;;
1410;SDS011;700;51.906;8.404;2024-03-08T07:05:45;35.50;;;22.27;;
1410;SDS011;700;51.906;8.404;2024-03-08T07:10:46;30.77;;;20.80;;
1410;SDS011;700;51.906;8.404;2024-03-08T07:15:47;30.40;;;22.20;;
1410;SDS011;700;51.906;8.404;2024-03-08T07:20:47;30.10;;;23.47;;
1410;SDS011;700;51.906;8.404;2024-03-08T07:25:50;30.20;;;21.80;;
1410;SDS011;700;51.906;8.404;2024-03-08T07:30:51;30.47;;;20.27;;
1410;SDS011;700;51.906;8.404;2024-03-08T07:35:51;32.77;;;22.07;;
1410;SDS011;700;51.906;8.404;2024-03-08T07:40:52;27.27;;;20.07;;
1410;SDS011;700;51.906;8.404;2024-03-08T07:45:55;31.87;;;22.67;;
1410;SDS011;700;51.906;8.404;2024-03-08T07:50:56;31.27;;;22.63;;
1410;SDS011;700;51.906;8.404;2024-03-08T07:55:59;31.20;;;23.40;;
1410;SDS011;700;51.906;8.404;2024-03-08T08:01:02;33.73;;;22.93;;
1410;SDS011;700;51.906;8.404;2024-03-08T08:06:02;28.90;;;22.10;;
1410;SDS011;700;51.906;8.404;2024-03-08T08:11:03;29.23;;;21.63;;
1410;SDS011;700;51.906;8.404;2024-03-08T08:16:09;30.07;;;22.10;;
1410;SDS011;700;51.906;8.404;2024-03-08T08:21:10;27.60;;;21.30;;
1410;SDS011;700;51.906;8.404;2024-03-08T08:26:11;27.50;;;22.60;;
1410;SDS011;700;51.906;8.404;2024-03-08T08:31:14;28.90;;;23.27;;
1410;SDS011;700;51.906;8.404;2024-03-08T08:36:15;23.63;;;21.20;;
1410;SDS011;700;51.906;8.404;2024-03-08T08:41:15;25.20;;;21.93;;
1410;SDS011;700;51.906;8.404;2024-03-08T08:46:17;29.30;;;21.70;;
1410;SDS011;700;51.906;8.404;2024-03-08T08:51:21;23.20;;;20.70;;
1410;SDS011;700;51.906;8.404;2024-03-08T08:56:27;24.23;;;21.73;;
1410;SDS011;700;51.906;8.404;2024-03-08T09:01:30;24.13;;;21.23;;
1410;SDS011;700;51.906;8.404;2024-03-08T09:06:31;24.20;;;21.70;;
1410;SDS011;700;51.906;8.404;2024-03-08T09:11:34;24.90;;;22.30;;
1410;SDS011;700;51.906;8.404;2024-03-08T09:16:35;22.10;;;19.97;;
1410;SDS011;700;51.906;8.404;2024-03-08T09:21:36;23.37;;;20.93;;
1410;SDS011;700;51.906;8.404;2024-03-08T09:26:37;25.03;;;22.07;;
1410;SDS011;700;51.906;8.404;2024-03-08T09:31:40;22.30;;;20.10;;
1410;SDS011;700;51.906;8.404;2024-03-08T09:36:41;23.20;;;20.93;;
1410;SDS011;700;51.906;8.404;2024-03-08T09:41:44;23.00;;;20.70;;
1410;SDS011;700;51.906;8.404;2024-03-08T09:46:48;23.47;;;20.93;;
1410;SDS011;700;51.906;8.404;2024-03-08T09:51:51;22.37;;;20.27;;
1410;SDS011;700;51.906;8.404;2024-03-08T09:56:52;22.80;;;20.60;;
1410;SDS011;700;51.906;8.404;2024-03-08T10:01:52;21.90;;;19.80;;
1410;SDS011;700;51.906;8.404;2024-03-08T10:07:00;21.53;;;19.50;;
1410;SDS011;700;51.906;8.404;2024-03-08T10:12:01;19.17;;;17.27;;
1410;SDS011;700;51.906;8.404;2024-03-08T10:17:05;21.73;;;19.53;;
1410;SDS011;700;51.906;8.404;2024-03-08T10:22:08;22.60;;;20.30;;
1410;SDS011;700;51.906;8.404;2024-03-08T10:27:18;21.43;;;19.23;;
1410;SDS011;700;51.906;8.404;2024-03-08T10:32:19;21.63;;;18.70;;
1410;SDS011;700;51.906;8.404;2024-03-08T10:37:21;20.80;;;18.70;;
1410;SDS011;700;51.906;8.404;2024-03-08T10:42:26;21.03;;;18.60;;
1410;SDS011;700;51.906;8.404;2024-03-08T10:47:29;19.43;;;17.53;;
1410;SDS011;700;51.906;8.404;2024-03-08T10:52:33;18.93;;;17.10;;
1410;SDS011;700;51.906;8.404;2024-03-08T10:57:34;20.97;;;16.93;;
1410;SDS011;700;51.906;8.404;2024-03-08T11:02:38;18.07;;;16.13;;
1410;SDS011;700;51.906;8.404;2024-03-08T11:07:43;17.50;;;15.70;;
1410;SDS011;700;51.906;8.404;2024-03-08T11:12:44;17.77;;;15.83;;
1410;SDS011;700;51.906;8.404;2024-03-08T11:17:48;17.60;;;15.37;;
1410;SDS011;700;51.906;8.404;2024-03-08T11:22:53;15.20;;;13.73;;
1410;SDS011;700;51.906;8.404;2024-03-08T11:33:23;17.33;;;14.93;;
1410;SDS011;700;51.906;8.404;2024-03-08T11:38:31;17.33;;;15.40;;
1410;SDS011;700;51.906;8.404;2024-03-08T11:43:33;17.30;;;15.50;;
1410;SDS011;700;51.906;8.404;2024-03-08T11:48:37;17.67;;;15.87;;
1410;SDS011;700;51.906;8.404;2024-03-08T11:53:41;16.77;;;14.97;;
1410;SDS011;700;51.906;8.404;2024-03-08T11:58:51;16.83;;;15.03;;
1410;SDS011;700;51.906;8.404;2024-03-08T12:03:57;17.20;;;15.47;;
1410;SDS011;700;51.906;8.404;2024-03-08T12:09:01;18.13;;;16.27;;
1410;SDS011;700;51.906;8.404;2024-03-08T12:14:03;18.63;;;16.10;;
1410;SDS011;700;51.906;8.404;2024-03-08T12:19:06;19.50;;;16.50;;
1410;SDS011;700;51.906;8.404;2024-03-08T12:24:08;19.53;;;14.80;;
1410;SDS011;700;51.906;8.404;2024-03-08T12:34:20;15.77;;;14.17;;
1410;SDS011;700;51.906;8.404;2024-03-08T12:39:21;14.53;;;13.00;;
1410;SDS011;700;51.906;8.404;2024-03-08T12:44:22;16.53;;;14.40;;
1410;SDS011;700;51.906;8.404;2024-03-08T12:49:23;16.80;;;14.70;;
1410;SDS011;700;51.906;8.404;2024-03-08T12:54:27;13.63;;;12.07;;
1410;SDS011;700;51.906;8.404;2024-03-08T12:59:31;14.43;;;12.73;;
1410;SDS011;700;51.906;8.404;2024-03-08T13:04:31;16.40;;;13.50;;
1410;SDS011;700;51.906;8.404;2024-03-08T13:09:32;16.80;;;14.50;;
1410;SDS011;700;51.906;8.404;2024-03-08T13:14:40;19.10;;;15.70;;
1410;SDS011;700;51.906;8.404;2024-03-08T13:19:41;17.70;;;13.80;;
1410;SDS011;700;51.906;8.404;2024-03-08T13:24:44;16.07;;;13.63;;
1410;SDS011;700;51.906;8.404;2024-03-08T13:29:51;15.83;;;14.13;;
1410;SDS011;700;51.906;8.404;2024-03-08T13:34:53;19.17;;;13.60;;
1410;SDS011;700;51.906;8.404;2024-03-08T13:39:58;15.47;;;13.03;;
1410;SDS011;700;51.906;8.404;2024-03-08T13:44:58;15.53;;;13.73;;
1410;SDS011;700;51.906;8.404;2024-03-08T13:50:02;16.00;;;13.13;;
1410;SDS011;700;51.906;8.404;2024-03-08T13:55:04;16.07;;;13.63;;
1410;SDS011;700;51.906;8.404;2024-03-08T14:00:06;16.47;;;13.93;;
1410;SDS011;700;51.906;8.404;2024-03-08T14:05:07;21.80;;;14.30;;
1410;SDS011;700;51.906;8.404;2024-03-08T14:10:09;18.37;;;15.40;;
1410;SDS011;700;51.906;8.404;2024-03-08T14:15:09;18.20;;;16.30;;
1410;SDS011;700;51.906;8.404;2024-03-08T14:20:11;25.67;;;17.27;;
1410;SDS011;700;51.906;8.404;2024-03-08T14:25:15;22.17;;;16.97;;
1410;SDS011;700;51.906;8.404;2024-03-08T14:30:18;21.73;;;16.57;;
1410;SDS011;700;51.906;8.404;2024-03-08T14:35:35;18.90;;;15.40;;
1410;SDS011;700;51.906;8.404;2024-03-08T14:40:38;19.07;;;15.70;;
1410;SDS011;700;51.906;8.404;2024-03-08T14:45:39;19.03;;;16.63;;
1410;SDS011;700;51.906;8.404;2024-03-08T14:50:41;21.67;;;16.63;;
1410;SDS011;700;51.906;8.404;2024-03-08T14:55:43;24.73;;;17.07;;
1410;SDS011;700;51.906;8.404;2024-03-08T15:00:47;20.90;;;17.30;;
1410;SDS011;700;51.906;8.404;2024-03-08T15:05:50;22.63;;;17.20;;
1410;SDS011;700;51.906;8.404;2024-03-08T15:10:50;24.30;;;16.90;;
1410;SDS011;700;51.906;8.404;2024-03-08T15:15:54;22.20;;;17.53;;
1410;SDS011;700;51.906;8.404;2024-03-08T15:20:55;22.00;;;15.70;;
1410;SDS011;700;51.906;8.404;2024-03-08T15:25:56;21.47;;;15.97;;
1410;SDS011;700;51.906;8.404;2024-03-08T15:30:59;19.70;;;15.50;;
1410;SDS011;700;51.906;8.404;2024-03-08T15:36:05;23.17;;;17.60;;
1410;SDS011;700;51.906;8.404;2024-03-08T15:41:09;21.53;;;16.00;;
1410;SDS011;700;51.906;8.404;2024-03-08T15:46:15;23.17;;;17.13;;
1410;SDS011;700;51.906;8.404;2024-03-08T15:51:22;26.43;;;17.50;;
1410;SDS011;700;51.906;8.404;2024-03-08T15:56:28;26.37;;;16.80;;
1410;SDS011;700;51.906;8.404;2024-03-08T16:01:34;22.37;;;17.27;;
1410;SDS011;700;51.906;8.404;2024-03-08T16:06:37;28.30;;;18.70;;
1410;SDS011;700;51.906;8.404;2024-03-08T16:11:40;22.90;;;17.47;;
1410;SDS011;700;51.906;8.404;2024-03-08T16:16:41;21.07;;;15.57;;
1410;SDS011;700;51.906;8.404;2024-03-08T16:21:42;24.13;;;17.80;;
1410;SDS011;700;51.906;8.404;2024-03-08T16:26:47;21.80;;;16.83;;
1410;SDS011;700;51.906;8.404;2024-03-08T16:31:48;24.47;;;18.10;;
1410;SDS011;700;51.906;8.404;2024-03-08T16:36:49;23.60;;;16.80;;
1410;SDS011;700;51.906;8.404;2024-03-08T16:41:49;20.57;;;16.13;;
1410;SDS011;700;51.906;8.404;2024-03-08T16:46:50;27.20;;;18.03;;
1410;SDS011;700;51.906;8.404;2024-03-08T16:51:50;27.73;;;19.40;;
1410;SDS011;700;51.906;8.404;2024-03-08T16:56:51;26.13;;;18.80;;
1410;SDS011;700;51.906;8.404;2024-03-08T17:01:51;24.60;;;17.87;;
1410;SDS011;700;51.906;8.404;2024-03-08T17:06:52;28.87;;;21.20;;
1410;SDS011;700;51.906;8.404;2024-03-08T17:11:59;33.20;;;20.10;;
1410;SDS011;700;51.906;8.404;2024-03-08T17:17:00;31.20;;;20.97;;
1410;SDS011;700;51.906;8.404;2024-03-08T17:22:05;34.20;;;21.97;;
1410;SDS011;700;51.906;8.404;2024-03-08T17:27:06;31.97;;;23.23;;
1410;SDS011;700;51.906;8.404;2024-03-08T17:32:07;29.17;;;22.40;;
1410;SDS011;700;51.906;8.404;2024-03-08T17:37:08;30.80;;;20.97;;
1410;SDS011;700;51.906;8.404;2024-03-08T17:42:14;32.73;;;21.60;;
1410;SDS011;700;51.906;8.404;2024-03-08T17:47:21;28.93;;;21.33;;
1410;SDS011;700;51.906;8.404;2024-03-08T17:52:22;30.57;;;21.77;;
1410;SDS011;700;51.906;8.404;2024-03-08T17:57:23;32.50;;;23.20;;
1410;SDS011;700;51.906;8.404;2024-03-08T18:02:25;31.53;;;21.73;;
1410;SDS011;700;51.906;8.404;2024-03-08T18:07:25;31.23;;;21.97;;
1410;SDS011;700;51.906;8.404;2024-03-08T18:12:26;33.57;;;22.80;;
1410;SDS011;700;51.906;8.404;2024-03-08T18:17:30;32.60;;;22.13;;
1410;SDS011;700;51.906;8.404;2024-03-08T18:22:36;32.53;;;27.00;;
1410;SDS011;700;51.906;8.404;2024-03-08T18:27:36;34.47;;;24.37;;
1410;SDS011;700;51.906;8.404;2024-03-08T18:32:40;34.13;;;22.13;;
1410;SDS011;700;51.906;8.404;2024-03-08T18:37:47;32.63;;;21.70;;
1410;SDS011;700;51.906;8.404;2024-03-08T18:42:52;32.87;;;23.20;;
1410;SDS011;700;51.906;8.404;2024-03-08T18:47:54;30.90;;;22.20;;
1410;SDS011;700;51.906;8.404;2024-03-08T18:52:58;30.60;;;20.90;;
1410;SDS011;700;51.906;8.404;2024-03-08T18:57:59;32.13;;;22.17;;
1410;SDS011;700;51.906;8.404;2024-03-08T19:03:06;31.60;;;21.00;;
1410;SDS011;700;51.906;8.404;2024-03-08T19:08:09;31.10;;;20.80;;
1410;SDS011;700;51.906;8.404;2024-03-08T19:13:12;31.23;;;21.97;;
1410;SDS011;700;51.906;8.404;2024-03-08T19:18:13;32.17;;;22.17;;
1410;SDS011;700;51.906;8.404;2024-03-08T19:23:14;34.10;;;21.70;;
1410;SDS011;700;51.906;8.404;2024-03-08T19:28:15;32.40;;;21.70;;
1410;SDS011;700;51.906;8.404;2024-03-08T19:33:21;31.20;;;21.80;;
1410;SDS011;700;51.906;8.404;2024-03-08T19:38:22;32.23;;;21.20;;
1410;SDS011;700;51.906;8.404;2024-03-08T19:43:23;37.10;;;22.77;;
1410;SDS011;700;51.906;8.404;2024-03-08T19:48:26;32.43;;;22.50;;
1410;SDS011;700;51.906;8.404;2024-03-08T19:53:27;30.63;;;21.83;;
1410;SDS011;700;51.906;8.404;2024-03-08T19:58:28;29.73;;;19.90;;
1410;SDS011;700;51.906;8.404;2024-03-08T20:03:29;28.93;;;21.47;;
1410;SDS011;700;51.906;8.404;2024-03-08T20:08:31;32.87;;;22.73;;
1410;SDS011;700;51.906;8.404;2024-03-08T20:13:31;31.10;;;21.23;;
1410;SDS011;700;51.906;8.404;2024-03-08T20:18:33;33.20;;;23.70;;
1410;SDS011;700;51.906;8.404;2024-03-08T20:23:37;34.03;;;22.03;;
1410;SDS011;700;51.906;8.404;2024-03-08T20:28:41;31.50;;;19.47;;
1410;SDS011;700;51.906;8.404;2024-03-08T20:33:44;37.30;;;22.13;;
1410;SDS011;700;51.906;8.404;2024-03-08T20:38:46;31.23;;;21.37;;
1410;SDS011;700;51.906;8.404;2024-03-08T20:43:50;33.63;;;20.73;;
1410;SDS011;700;51.906;8.404;2024-03-08T20:48:50;32.40;;;22.40;;
1410;SDS011;700;51.906;8.404;2024-03-08T20:53:51;32.10;;;21.67;;
1410;SDS011;700;51.906;8.404;2024-03-08T20:58:54;29.03;;;20.83;;
1410;SDS011;700;51.906;8.404;2024-03-08T21:03:55;32.57;;;20.20;;
1410;SDS011;700;51.906;8.404;2024-03-08T21:08:59;34.10;;;21.00;;
1410;SDS011;700;51.906;8.404;2024-03-08T21:14:02;32.90;;;20.70;;
1410;SDS011;700;51.906;8.404;2024-03-08T21:19:03;33.30;;;21.87;;
1410;SDS011;700;51.906;8.404;2024-03-08T21:24:05;34.73;;;21.63;;
1410;SDS011;700;51.906;8.404;2024-03-08T21:29:09;36.53;;;23.20;;
1410;SDS011;700;51.906;8.404;2024-03-08T21:34:09;32.17;;;20.93;;
1410;SDS011;700;51.906;8.404;2024-03-08T21:39:12;34.87;;;22.57;;
1410;SDS011;700;51.906;8.404;2024-03-08T21:44:13;31.13;;;20.77;;
1410;SDS011;700;51.906;8.404;2024-03-08T21:49:15;33.23;;;21.67;;
1410;SDS011;700;51.906;8.404;2024-03-08T21:54:16;31.20;;;20.60;;
1410;SDS011;700;51.906;8.404;2024-03-08T21:59:17;33.60;;;22.33;;
1410;SDS011;700;51.906;8.404;2024-03-08T22:04:20;33.63;;;24.30;;
1410;SDS011;700;51.906;8.404;2024-03-08T22:09:23;36.50;;;22.80;;
1410;SDS011;700;51.906;8.404;2024-03-08T22:14:23;33.57;;;21.53;;
1410;SDS011;700;51.906;8.404;2024-03-08T22:19:26;32.03;;;21.20;;
1410;SDS011;700;51.906;8.404;2024-03-08T22:24:27;34.63;;;21.17;;
1410;SDS011;700;51.906;8.404;2024-03-08T22:29:28;29.60;;;20.97;;
1410;SDS011;700;51.906;8.404;2024-03-08T22:34:29;35.10;;;22.50;;
1410;SDS011;700;51.906;8.404;2024-03-08T22:39:34;31.67;;;22.93;;
1410;SDS011;700;51.906;8.404;2024-03-08T22:44:35;33.17;;;21.93;;
1410;SDS011;700;51.906;8.404;2024-03-08T22:49:35;35.67;;;21.90;;
1410;SDS011;700;51.906;8.404;2024-03-08T22:54:36;29.57;;;20.77;;
1410;SDS011;700;51.906;8.404;2024-03-08T22:59:36;33.10;;;22.23;;
1410;SDS011;700;51.906;8.404;2024-03-08T23:04:37;32.87;;;21.47;;
1410;SDS011;700;51.906;8.404;2024-03-08T23:09:38;30.80;;;21.57;;
1410;SDS011;700;51.906;8.404;2024-03-08T23:14:45;32.50;;;21.67;;
1410;SDS011;700;51.906;8.404;2024-03-08T23:19:46;33.97;;;22.80;;
1410;SDS011;700;51.906;8.404;2024-03-08T23:24:46;33.00;;;21.97;;
1410;SDS011;700;51.906;8.404;2024-03-08T23:29:47;33.13;;;22.63;;
1410;SDS011;700;51.906;8.404;2024-03-08T23:34:48;37.10;;;23.50;;
1410;SDS011;700;51.906;8.404;2024-03-08T23:39:48;34.63;;;23.63;;
1410;SDS011;700;51.906;8.404;2024-03-08T23:44:49;35.77;;;22.53;;
1410;SDS011;700;51.906;8.404;2024-03-08T23:49:50;36.43;;;22.50;;
1410;SDS011;700;51.906;8.404;2024-03-08T23:54:52;35.23;;;22.47;;
1410;SDS011;700;51.906;8.404;2024-03-08T23:59:53;37.00;;;22.57;;
